»·PEaware :: N4868P KSNA-KSMO

N4868P :: KSNA-KSMO

FLIGHT INFORMATION

Flight Status: Arrived
Operator: Privately registered:
United States
More flights under this callsign
Pilot: Erik K. (18332)
Aircraft: BEECH AIRCRAFT BARON
(BE58)
More flights by this aircraft type
Origin: KSNA John Wayne-Orange Co
United States
Destination: KSMO Santa Monica Mun
United States
More flights between these airports :: More routes between these airports
Route: SLI V8 POXKU V363 BAYJY V186 DARTS
File this flight plan on PilotEdge
Remarks: I-4
Altitude:
(Current/Filed)
6,000ft
Speed:
(Current/Filed)
180kts
Departed: 20-May-18 10:48 AM
Arrived: 20-May-18 11:15 AM
Distance/Time
Traveled:
36nm/0:27
Distance/Time
To Go:
Arrived

Flight Plot

Page will automatically refresh every two minutes.


Map Options




Map Legend


Flown Route
Filed Route
Departure Airport
Arrival Airport
Navaid (VOR, NDB)
Fix

Horizontal Profiles

Position Reports

Time Latitude Longitude Heading Altitude Ground
Speed
20-May-18 10:31 33.676089 -117.870900 219 57ft 0kts
20-May-18 10:32 33.676089 -117.870900 219 57ft 0kts
20-May-18 10:33 33.676089 -117.870900 219 57ft 0kts
20-May-18 10:34 33.676089 -117.870900 219 57ft 0kts
20-May-18 10:35 33.676089 -117.870900 219 57ft 0kts
20-May-18 10:36 33.676089 -117.870900 219 57ft 0kts
20-May-18 10:37 33.676089 -117.870900 219 57ft 0kts
20-May-18 10:38 33.676089 -117.870900 219 57ft 0kts
20-May-18 10:39 33.676089 -117.870900 219 57ft 0kts
20-May-18 10:40 33.676089 -117.870900 219 57ft 0kts
20-May-18 10:41 33.676080 -117.870912 229 57ft 1kts
20-May-18 10:42 33.676207 -117.870019 28 57ft 0kts
20-May-18 10:43 33.677421 -117.869246 28 57ft 10kts
20-May-18 10:44 33.680659 -117.867411 21 57ft 14kts
20-May-18 10:45 33.681249 -117.866727 77 57ft 0kts
20-May-18 10:46 33.681249 -117.866727 77 57ft 0kts
20-May-18 10:47 33.680798 -117.865745 160 57ft 10kts
20-May-18 10:48 33.658070 -117.878589 203 1039ft 120kts
20-May-18 10:49 33.635369 -117.904604 233 2939ft 106kts
20-May-18 10:50 33.630731 -117.932669 329 4417ft 101kts
20-May-18 10:51 33.657631 -117.930446 9 5722ft 99kts
20-May-18 10:52 33.692176 -117.924563 7 5980ft 161kts
20-May-18 10:53 33.738046 -117.917719 6 5968ft 175kts
20-May-18 10:54 33.785481 -117.913173 2 5966ft 177kts
20-May-18 10:55 33.828041 -117.894254 67 5970ft 176kts
20-May-18 10:56 33.843525 -117.837239 77 5967ft 185kts
20-May-18 10:57 33.864152 -117.785542 10 5968ft 186kts
20-May-18 10:58 33.915191 -117.783947 359 5967ft 187kts
20-May-18 10:59 33.966581 -117.784790 358 5967ft 187kts
20-May-18 11:00 34.011098 -117.803167 295 5971ft 186kts
20-May-18 11:01 34.030211 -117.860138 290 5967ft 187kts
20-May-18 11:02 34.048423 -117.918547 290 5966ft 187kts
20-May-18 11:03 34.066485 -117.977180 290 5967ft 187kts
20-May-18 11:04 34.084438 -118.035524 290 5967ft 187kts
20-May-18 11:05 34.100563 -118.088119 290 5962ft 156kts
20-May-18 11:06 34.114221 -118.132606 290 5430ft 174kts
20-May-18 11:07 34.130570 -118.186133 290 4649ft 162kts
20-May-18 11:08 34.145059 -118.233633 290 4338ft 153kts
20-May-18 11:09 34.147889 -118.277552 232 4351ft 134kts
20-May-18 11:10 34.122523 -118.312220 227 4052ft 148kts
20-May-18 11:11 34.094204 -118.348975 227 3591ft 154kts
20-May-18 11:12 34.066017 -118.384478 227 2643ft 127kts
20-May-18 11:13 34.043954 -118.417549 226 1177ft 115kts
20-May-18 11:14 34.024914 -118.440494 225 461ft 91kts
20-May-18 11:15 34.013318 -118.454566 299 125ft 13kts
20-May-18 11:16 34.013697 -118.454958 319 126ft 0kts
20-May-18 11:17 34.013726 -118.454988 319 126ft 0kts
20-May-18 11:18 34.015768 -118.452890 349 135ft 7kts
20-May-18 11:19 34.015881 -118.452949 316 135ft 0kts
20-May-18 11:20 34.015881 -118.452949 316 135ft 0kts

Navigation Log

Ident Type
Flight plan parsing failed, navigation log unavailable